Pagrindinis puslapis
METAR-TAF:

METAR-TAF

Oro uostai :

Singapūras, Singapūras

platuma: 01-22N, ilguma: 103-59E, Aukštis: 5 m

Dabartinis oras

Ataskaita buvo paskelbta 28 minutes, ne 04:30 UTC
Vėjas 12 kt iš Šiaurės Rytų, svyruoja nuo Šiaurės ir Rytų/Šiaurės Rytų
Temperatūra 31°C
Drėgmė 59%
Slėgis 1010 hPa
Matomumas 10 km arba daugiau
Mažai debesys ne aukštis 2000 ft
Su prošvaistėmis ne aukštis 30000 ft

METAR: WSSS 290430Z 04012KT 010V070 9999 FEW020 BKN300 31/22 Q1010 NOSIG

Laikas: 12:58 (04:58 UTC)

Prognozė

Ataskaita buvo paskelbta 5 valandos ir 58 minutes, ne 23:00 UTC
Prognozė galioja nuo 29 metu 00 UTC su 01 metu 06 UTC
Vėjas 10 kt iš Šiaurės/Šiaurės Rytų
Matomumas 10 km arba daugiau
Mažai debesys ne aukštis 1500 ft
Išsisklaidę debesys ne aukštis 2000 ft

TAF: WSSS 282300Z 2900/0106 03010KT 9999 FEW015 SCT020

Orai ataskaitas ir orų prognozės (METAR, TAF).

turimą stotys yra geltonos ir raudonos taškus žemėlapyje.

Perkelti pele per norėdami pamatyti stoties vardą.

Tada spustelėkite, norėdami matyti oro stebėjimo ir prognozės.

Norėdami pakeisti žemėlapį: spustelėkite ant žalios mygtukų su juodo kryžiaus žemyn,; žalią mygtuką su brūkšneliu, jei norite nutolinti; arba žalių rodyklių gretimoms žemėlapius.


METAR-TAF: